Time;durP1;ratioP1;P1;durP2;ratioP2;P2;SDS_P1;SDS_P2;PMS_P1;PMS_P2;Temp;Humidity;BMP_temperature;BMP_pressure;BME280_temperature;BME280_humidity;BME280_pressure;Samples;Min_cycle;Max_cycle;Signal;HPM_P1;HPM_P2
2022/12/08 00:01:19;;;;;;;6.10;0.98;;;22.90;99.90;;;;;;5070184;28;20579;-85
2022/12/08 00:03:50;;;;;;;8.93;1.20;;;23.20;99.90;;;;;;5072871;28;20196;-85
2022/12/08 00:09:25;;;;;;;5.03;1.23;;;22.90;99.90;;;;;;5048415;28;20274;-84
2022/12/08 00:11:58;;;;;;;4.35;1.00;;;23.10;99.90;;;;;;5075325;28;21077;-84
2022/12/08 00:14:31;;;;;;;4.75;1.15;;;23.20;99.90;;;;;;5068599;28;20193;-81
2022/12/08 00:17:03;;;;;;;6.25;1.13;;;23.40;99.90;;;;;;5069274;28;20239;-84
2022/12/08 00:19:34;;;;;;;5.57;0.77;;;23.40;99.90;;;;;;5073767;28;20192;-85
2022/12/08 00:22:08;;;;;;;3.95;1.00;;;23.00;99.90;;;;;;5071156;28;20233;-83
2022/12/08 00:24:40;;;;;;;4.80;0.95;;;23.20;99.90;;;;;;5071931;28;20246;-83
2022/12/08 00:27:12;;;;;;;3.97;0.90;;;23.20;99.90;;;;;;5064586;28;20540;-85
2022/12/08 00:29:44;;;;;;;6.80;0.80;;;23.40;99.90;;;;;;5069202;28;20228;-85
2022/12/08 00:32:15;;;;;;;3.20;1.00;;;23.30;99.90;;;;;;5070929;28;20280;-85
2022/12/08 00:34:45;;;;;;;6.93;0.95;;;23.30;99.90;;;;;;5070303;28;20222;-84
2022/12/08 00:37:18;;;;;;;4.85;0.95;;;23.40;99.90;;;;;;5071607;28;20652;-88
2022/12/08 00:39:49;;;;;;;4.50;1.23;;;23.30;99.90;;;;;;5071532;28;20636;-84
2022/12/08 00:42:20;;;;;;;4.32;1.10;;;23.40;99.90;;;;;;5067201;28;20657;-86
2022/12/08 00:44:51;;;;;;;5.20;1.10;;;23.50;99.90;;;;;;5071780;28;20206;-83
2022/12/08 00:47:24;;;;;;;7.28;1.20;;;23.70;99.90;;;;;;5070785;28;20193;-85
2022/12/08 00:49:55;;;;;;;4.55;0.95;;;23.80;99.90;;;;;;5072335;28;20529;-86
2022/12/08 00:52:27;;;;;;;7.60;0.95;;;23.60;99.90;;;;;;5069357;28;20290;-85
2022/12/08 00:54:58;;;;;;;7.13;0.90;;;23.30;99.90;;;;;;5069712;28;20287;-84
2022/12/08 00:57:29;;;;;;;5.32;1.00;;;23.20;99.90;;;;;;5070329;28;20201;-90
2022/12/08 01:00:00;;;;;;;7.05;1.25;;;22.70;99.90;;;;;;5072989;28;20224;-84
2022/12/08 01:02:32;;;;;;;7.22;1.10;;;22.60;99.90;;;;;;5068249;28;20192;-84
2022/12/08 01:05:03;;;;;;;5.15;1.00;;;22.60;99.90;;;;;;5069815;28;20660;-83
2022/12/08 01:07:36;;;;;;;6.55;0.95;;;22.60;99.90;;;;;;5071799;28;20655;-89
2022/12/08 01:10:07;;;;;;;6.20;1.30;;;22.50;99.90;;;;;;5069127;28;20185;-81
2022/12/08 01:12:40;;;;;;;3.58;0.90;;;22.50;99.90;;;;;;5069719;28;20232;-85
2022/12/08 01:15:11;;;;;;;8.55;1.30;;;22.20;99.90;;;;;;5072344;28;20203;-86
2022/12/08 01:17:42;;;;;;;8.23;1.67;;;22.20;99.90;;;;;;5069880;28;20219;-83
2022/12/08 01:20:14;;;;;;;17.10;7.70;;;22.40;99.90;;;;;;5070141;28;20235;-87
2022/12/08 01:22:48;;;;;;;8.43;1.20;;;22.60;99.90;;;;;;5069615;28;20250;-83
2022/12/08 01:25:19;;;;;;;7.60;1.10;;;22.40;99.90;;;;;;5063466;28;20631;-90
2022/12/08 01:27:49;;;;;;;6.85;1.10;;;22.20;99.90;;;;;;5076772;28;20732;-84
2022/12/08 01:30:22;;;;;;;8.70;1.40;;;22.40;99.90;;;;;;5072318;28;20192;-85
2022/12/08 01:32:53;;;;;;;7.70;1.20;;;22.50;99.90;;;;;;5071945;28;21050;-84
2022/12/08 01:35:23;;;;;;;8.77;1.10;;;22.60;99.90;;;;;;5072284;28;20573;-90
2022/12/08 01:37:57;;;;;;;6.95;1.25;;;22.50;99.90;;;;;;5071637;28;20200;-88
2022/12/08 01:40:27;;;;;;;5.63;0.90;;;22.40;99.90;;;;;;5068780;28;20216;-83
2022/12/08 01:42:58;;;;;;;6.22;1.05;;;22.50;99.90;;;;;;5068496;28;20246;-79
2022/12/08 01:45:30;;;;;;;6.68;1.20;;;22.60;99.90;;;;;;5063288;28;20196;-83
2022/12/08 01:48:05;;;;;;;4.72;0.88;;;22.80;99.90;;;;;;5071995;28;20207;-85
2022/12/08 01:50:36;;;;;;;5.00;0.90;;;22.90;99.90;;;;;;5070285;28;20196;-80
2022/12/08 01:53:15;;;;;;;7.25;1.15;;;22.70;99.90;;;;;;5070196;28;20196;-82
2022/12/08 01:55:50;;;;;;;5.32;1.10;;;22.90;99.90;;;;;;5063643;28;20657;-85
2022/12/08 01:58:25;;;;;;;4.47;1.30;;;22.50;99.90;;;;;;5070377;28;20603;-83
2022/12/08 02:00:56;;;;;;;6.80;1.02;;;22.20;99.90;;;;;;5070897;28;20216;-80
2022/12/08 02:03:32;;;;;;;7.25;2.08;;;22.20;99.90;;;;;;5069286;28;20218;-81
2022/12/08 02:06:03;;;;;;;8.65;1.33;;;22.30;99.90;;;;;;5060834;28;20620;-82
2022/12/08 02:08:38;;;;;;;5.72;1.15;;;22.40;99.90;;;;;;5052864;28;20190;-86
2022/12/08 02:11:11;;;;;;;7.07;1.20;;;22.50;99.90;;;;;;5052793;28;20193;-80
2022/12/08 02:13:43;;;;;;;7.45;1.23;;;22.60;99.90;;;;;;5056635;28;20186;-81
2022/12/08 02:16:23;;;;;;;4.32;0.85;;;22.90;99.90;;;;;;5057462;28;20213;-85
2022/12/08 02:19:03;;;;;;;3.28;0.90;;;23.00;99.90;;;;;;5070595;28;20201;-81
2022/12/08 02:21:39;;;;;;;6.47;1.25;;;22.60;99.90;;;;;;5068566;28;20323;-84
2022/12/08 02:24:18;;;;;;;6.93;1.25;;;22.60;99.90;;;;;;5071903;28;20616;-85
2022/12/08 02:27:30;;;;;;;6.75;1.00;;;22.50;99.90;;;;;;5067767;28;20192;-83
2022/12/08 02:30:27;;;;;;;3.58;1.10;;;22.30;99.90;;;;;;5053046;28;20212;-83
2022/12/08 02:33:40;;;;;;;4.28;0.93;;;22.20;99.90;;;;;;5072198;28;20209;-86
2022/12/08 02:36:19;;;;;;;5.45;1.25;;;22.00;99.90;;;;;;5059298;28;20277;-81
2022/12/08 02:38:57;;;;;;;36.97;19.27;;;22.00;99.90;;;;;;5055381;28;20429;-86
2022/12/08 02:41:36;;;;;;;7.60;2.03;;;22.10;99.90;;;;;;5056349;28;20217;-84
2022/12/08 02:44:16;;;;;;;5.10;2.05;;;22.20;99.90;;;;;;5063745;28;20197;-83
2022/12/08 02:46:51;;;;;;;5.78;1.80;;;22.10;99.90;;;;;;5075726;28;20633;-84
2022/12/08 02:49:22;;;;;;;7.18;1.40;;;22.30;99.90;;;;;;5076286;28;20196;-83
2022/12/08 02:52:05;;;;;;;3.80;0.90;;;22.40;99.90;;;;;;5069153;28;20199;-86
2022/12/08 02:54:36;;;;;;;3.03;1.02;;;22.00;99.90;;;;;;5066340;28;20199;-86
2022/12/08 02:57:20;;;;;;;5.72;0.90;;;22.00;99.90;;;;;;5075536;28;20276;-85
2022/12/08 03:00:07;;;;;;;7.28;0.85;;;22.10;99.90;;;;;;5076221;28;20193;-85
2022/12/08 03:02:47;;;;;;;4.45;0.82;;;21.60;99.90;;;;;;5058261;28;20217;-85
2022/12/08 03:05:33;;;;;;;3.03;1.05;;;21.70;99.90;;;;;;5069458;28;20691;-83
2022/12/08 03:08:15;;;;;;;5.55;0.85;;;21.80;99.90;;;;;;5071709;28;20251;-89
2022/12/08 03:10:49;;;;;;;5.43;0.82;;;21.70;99.90;;;;;;5065081;28;20197;-81
2022/12/08 03:13:24;;;;;;;6.60;1.05;;;21.80;99.90;;;;;;5071042;28;20205;-75
2022/12/08 03:15:56;;;;;;;7.57;1.20;;;21.80;99.90;;;;;;5074933;28;20222;-81
2022/12/08 03:18:33;;;;;;;5.40;0.80;;;21.70;99.90;;;;;;5066127;28;20193;-85
2022/12/08 03:21:05;;;;;;;6.13;0.90;;;21.40;99.90;;;;;;5070688;28;20350;-88
2022/12/08 03:23:40;;;;;;;3.78;0.90;;;21.40;99.90;;;;;;5073397;28;20651;-81
2022/12/08 03:26:17;;;;;;;5.28;0.90;;;21.50;99.90;;;;;;5072474;28;20203;-79
2022/12/08 03:28:48;;;;;;;5.78;0.93;;;21.50;99.90;;;;;;5072412;28;20192;-82
2022/12/08 03:31:21;;;;;;;5.18;1.10;;;21.30;99.90;;;;;;5063570;28;20230;-81
2022/12/08 03:33:55;;;;;;;4.25;0.80;;;21.40;99.90;;;;;;5074921;28;20648;-84
2022/12/08 03:36:27;;;;;;;5.07;0.90;;;21.30;99.90;;;;;;5075017;28;20287;-78
2022/12/08 03:38:59;;;;;;;4.13;0.70;;;21.30;99.90;;;;;;5060916;28;20208;-82
2022/12/08 03:41:30;;;;;;;4.75;0.90;;;21.40;99.90;;;;;;5074737;28;20676;-78
2022/12/08 03:44:01;;;;;;;3.22;1.02;;;21.60;99.90;;;;;;5070729;28;20549;-78
2022/12/08 03:46:33;;;;;;;4.00;0.73;;;21.70;99.90;;;;;;5073459;28;20263;-82
2022/12/08 03:49:04;;;;;;;4.78;0.82;;;21.50;99.90;;;;;;5070141;28;20207;-77
2022/12/08 03:51:34;;;;;;;5.00;0.90;;;21.40;99.90;;;;;;5073207;28;20200;-80
2022/12/08 03:54:07;;;;;;;4.30;1.02;;;21.40;99.90;;;;;;5072648;28;20211;-80
2022/12/08 03:56:41;;;;;;;3.80;0.70;;;21.40;99.90;;;;;;5073012;28;20196;-77
2022/12/08 03:59:12;;;;;;;3.63;1.02;;;21.40;99.90;;;;;;5070395;28;20198;-84
2022/12/08 04:01:45;;;;;;;3.90;0.85;;;21.10;99.90;;;;;;5071472;28;20239;-78
2022/12/08 04:04:16;;;;;;;2.78;0.70;;;21.10;99.90;;;;;;5065743;28;20555;-74
2022/12/08 04:06:47;;;;;;;5.18;0.70;;;21.10;99.90;;;;;;5073788;28;20187;-77
2022/12/08 04:09:20;;;;;;;5.18;0.73;;;21.10;99.90;;;;;;5066187;28;20207;-78
2022/12/08 04:11:51;;;;;;;5.10;0.70;;;21.10;99.90;;;;;;5076260;28;20185;-82
2022/12/08 04:14:23;;;;;;;2.75;0.70;;;21.10;99.90;;;;;;5067025;28;21503;-84
2022/12/08 04:16:54;;;;;;;2.15;0.43;;;21.20;99.90;;;;;;5071236;28;20299;-82
2022/12/08 04:19:25;;;;;;;3.40;0.60;;;21.10;99.90;;;;;;5072586;28;20199;-83
2022/12/08 04:21:56;;;;;;;3.58;0.65;;;21.10;99.90;;;;;;5069504;28;20254;-80
2022/12/08 04:24:31;;;;;;;3.65;0.73;;;21.10;99.90;;;;;;5069418;28;20201;-79
2022/12/08 04:27:01;;;;;;;2.13;0.52;;;21.20;99.90;;;;;;5073248;28;20188;-82
2022/12/08 04:29:32;;;;;;;1.45;0.60;;;21.40;99.90;;;;;;5065740;28;20201;-83
2022/12/08 04:32:03;;;;;;;2.75;0.82;;;21.40;99.90;;;;;;5073163;28;20185;-76
2022/12/08 04:34:34;;;;;;;3.72;0.60;;;21.40;99.90;;;;;;5071935;28;20193;-80
2022/12/08 04:37:04;;;;;;;2.15;0.80;;;21.20;99.90;;;;;;5073137;28;20181;-83
2022/12/08 04:39:37;;;;;;;6.38;0.88;;;21.30;99.90;;;;;;5073220;28;20193;-78
2022/12/08 04:42:08;;;;;;;4.70;0.70;;;21.30;99.90;;;;;;5070350;28;20213;-77
2022/12/08 04:44:39;;;;;;;5.10;0.90;;;21.10;99.90;;;;;;5072291;28;20285;-80
2022/12/08 04:47:09;;;;;;;3.78;0.70;;;21.10;99.90;;;;;;5072262;28;20655;-80
2022/12/08 04:49:41;;;;;;;2.47;0.60;;;21.00;99.90;;;;;;5070921;28;20633;-78
2022/12/08 04:52:11;;;;;;;2.95;0.50;;;21.00;99.90;;;;;;5067986;28;20250;-81
2022/12/08 04:54:44;;;;;;;5.10;0.50;;;20.90;99.90;;;;;;5070530;28;20205;-79
2022/12/08 04:57:15;;;;;;;5.35;0.50;;;21.00;99.90;;;;;;5070772;28;20189;-78
2022/12/08 04:59:45;;;;;;;4.07;0.60;;;20.90;99.90;;;;;;5070104;28;20194;-76
2022/12/08 05:02:16;;;;;;;4.35;0.50;;;20.90;99.90;;;;;;5071894;28;20221;-80
2022/12/08 05:04:47;;;;;;;3.28;0.85;;;20.90;99.90;;;;;;5066483;28;20281;-80
2022/12/08 05:07:18;;;;;;;2.30;0.70;;;21.00;99.90;;;;;;5066963;28;20267;-79
2022/12/08 05:09:51;;;;;;;3.83;0.77;;;21.00;99.90;;;;;;5069430;28;20199;-79
2022/12/08 05:12:21;;;;;;;2.15;0.65;;;21.10;99.90;;;;;;5072743;28;20280;-81
2022/12/08 05:14:52;;;;;;;2.25;0.57;;;21.30;99.90;;;;;;5069700;28;20200;-80
2022/12/08 05:17:23;;;;;;;1.63;0.60;;;21.30;99.90;;;;;;5072668;28;20186;-78
2022/12/08 05:19:54;;;;;;;4.00;0.68;;;21.10;99.90;;;;;;5069280;28;20352;-78
2022/12/08 05:22:25;;;;;;;3.25;0.60;;;21.00;99.90;;;;;;5072737;28;20247;-78
2022/12/08 05:25:00;;;;;;;3.00;0.60;;;20.80;99.90;;;;;;5068980;28;20197;-80
2022/12/08 05:27:31;;;;;;;3.85;0.85;;;20.70;99.90;;;;;;5073444;28;20540;-82
2022/12/08 05:30:01;;;;;;;3.75;0.60;;;20.80;99.90;;;;;;5053659;28;20637;-80
2022/12/08 05:32:32;;;;;;;3.22;0.70;;;20.80;99.90;;;;;;5066267;28;20558;-84
2022/12/08 05:35:03;;;;;;;4.22;0.88;;;20.70;99.90;;;;;;5053369;28;20194;-85
2022/12/08 05:37:37;;;;;;;2.70;0.63;;;20.70;99.90;;;;;;5063719;28;20197;-81
2022/12/08 05:40:10;;;;;;;5.72;0.68;;;20.60;99.90;;;;;;5060871;28;20200;-76
2022/12/08 05:42:41;;;;;;;4.00;0.88;;;20.50;99.90;;;;;;5060911;28;20249;-81
2022/12/08 05:45:13;;;;;;;5.25;0.80;;;20.40;99.90;;;;;;5060724;28;20194;-82
2022/12/08 05:47:43;;;;;;;3.92;0.52;;;20.40;99.90;;;;;;5056934;28;20268;-86
2022/12/08 05:50:14;;;;;;;2.55;0.77;;;20.30;99.90;;;;;;5072464;28;20668;-86
2022/12/08 05:52:45;;;;;;;3.28;0.57;;;20.30;99.90;;;;;;5068725;28;20197;-88
2022/12/08 05:55:18;;;;;;;3.72;0.80;;;20.40;99.90;;;;;;5057105;28;20645;-83
2022/12/08 05:57:49;;;;;;;3.35;0.60;;;20.40;99.90;;;;;;5053488;28;20195;-86
2022/12/08 06:00:20;;;;;;;4.63;0.60;;;20.50;99.90;;;;;;5072697;28;20193;-84
2022/12/08 06:02:51;;;;;;;3.70;0.60;;;20.60;99.90;;;;;;5072383;28;20303;-86
2022/12/08 06:05:22;;;;;;;1.65;0.90;;;20.70;99.90;;;;;;5053073;28;20244;-85
2022/12/08 06:07:53;;;;;;;3.58;0.60;;;20.80;99.90;;;;;;5071091;28;20768;-84
2022/12/08 06:10:26;;;;;;;2.25;0.55;;;20.70;99.90;;;;;;5072484;28;20240;-80
2022/12/08 06:12:56;;;;;;;1.67;0.70;;;20.60;99.90;;;;;;5077327;28;20652;-84
2022/12/08 06:15:27;;;;;;;3.13;0.63;;;20.50;99.90;;;;;;5061454;28;20189;-82
2022/12/08 06:17:58;;;;;;;5.90;1.05;;;20.40;99.90;;;;;;5076976;28;20193;-82
2022/12/08 06:20:29;;;;;;;3.45;0.77;;;20.40;99.90;;;;;;5076394;28;20189;-86
2022/12/08 06:23:00;;;;;;;4.88;0.68;;;20.40;99.90;;;;;;5070923;28;20209;-88
2022/12/08 06:25:32;;;;;;;6.95;0.70;;;20.40;99.90;;;;;;5075006;28;20315;-82
2022/12/08 06:28:05;;;;;;;2.97;0.63;;;20.20;99.90;;;;;;5076839;28;20189;-84
2022/12/08 06:30:36;;;;;;;2.33;0.63;;;20.10;99.90;;;;;;5064727;28;20196;-81
2022/12/08 06:33:07;;;;;;;3.08;0.70;;;20.10;99.90;;;;;;5076718;28;20242;-82
2022/12/08 06:35:38;;;;;;;2.25;0.45;;;20.00;99.90;;;;;;5069517;28;20273;-86
2022/12/08 06:38:09;;;;;;;1.17;0.40;;;20.10;99.90;;;;;;5059861;28;20197;-80
2022/12/08 06:40:42;;;;;;;3.20;0.47;;;20.10;99.90;;;;;;5067534;28;20189;-84
2022/12/08 06:43:13;;;;;;;2.58;0.68;;;20.10;99.90;;;;;;5075553;28;20238;-89
2022/12/08 06:45:44;;;;;;;7.05;1.35;;;20.10;99.90;;;;;;5076586;28;20199;-82
2022/12/08 06:48:17;;;;;;;2.53;0.65;;;20.10;99.90;;;;;;5076704;28;20197;-84
2022/12/08 06:50:49;;;;;;;3.83;0.88;;;20.20;99.90;;;;;;5074115;28;20192;-82
2022/12/08 06:53:19;;;;;;;5.10;0.63;;;20.20;99.90;;;;;;5060488;28;20193;-81
2022/12/08 06:55:55;;;;;;;1.98;0.50;;;20.10;99.90;;;;;;5065231;28;20284;-83
2022/12/08 06:58:26;;;;;;;3.72;0.75;;;20.20;99.90;;;;;;5068497;28;20181;-84
2022/12/08 07:00:56;;;;;;;3.72;0.65;;;20.20;99.90;;;;;;5058868;28;20193;-82
2022/12/08 07:03:27;;;;;;;1.48;0.50;;;20.10;99.90;;;;;;5056362;28;20213;-84
2022/12/08 07:05:59;;;;;;;6.93;0.93;;;20.10;99.90;;;;;;5056199;28;20196;-85
2022/12/08 07:08:29;;;;;;;3.30;0.73;;;20.10;99.90;;;;;;5064475;28;20201;-81
2022/12/08 07:11:07;;;;;;;1.73;0.40;;;20.00;99.90;;;;;;5064054;28;20181;-83
2022/12/08 07:13:38;;;;;;;3.70;0.70;;;20.00;99.90;;;;;;5057293;28;20272;-85
2022/12/08 07:16:10;;;;;;;2.50;0.50;;;20.10;99.90;;;;;;5057582;28;20201;-83
2022/12/08 07:18:42;;;;;;;4.30;0.80;;;20.10;99.90;;;;;;5057503;28;20200;-80
2022/12/08 07:21:15;;;;;;;3.42;0.73;;;20.00;99.90;;;;;;5059865;28;20189;-84
2022/12/08 07:23:48;;;;;;;5.07;0.65;;;20.10;99.90;;;;;;5071697;28;20225;-86
2022/12/08 07:26:21;;;;;;;1.13;0.40;;;20.10;99.90;;;;;;5073069;28;20194;-86
2022/12/08 07:28:52;;;;;;;4.40;1.45;;;20.00;99.90;;;;;;5055573;28;20262;-89
2022/12/08 07:31:25;;;;;;;2.63;0.60;;;19.90;99.90;;;;;;5073640;28;20193;-84
2022/12/08 07:33:56;;;;;;;3.17;0.75;;;20.00;99.90;;;;;;5074519;28;20200;-85
2022/12/08 07:38:56;;;;;;;1.10;0.57;;;19.90;99.90;;;;;;5062237;28;20219;-77
2022/12/08 07:41:29;;;;;;;2.80;0.60;;;19.80;99.90;;;;;;5066003;28;20197;-78
2022/12/08 07:44:00;;;;;;;3.22;0.80;;;19.60;99.90;;;;;;5064862;28;20231;-77
2022/12/08 07:46:30;;;;;;;3.55;0.88;;;19.60;99.90;;;;;;5065878;28;20532;-80
2022/12/08 07:49:01;;;;;;;2.53;0.77;;;19.60;99.90;;;;;;5066236;28;20205;-77
2022/12/08 07:51:33;;;;;;;2.40;0.70;;;19.70;99.90;;;;;;5064745;28;20192;-78
2022/12/08 07:54:03;;;;;;;2.60;0.73;;;19.80;99.90;;;;;;5066100;28;20247;-78
2022/12/08 07:56:36;;;;;;;2.85;0.75;;;19.90;99.90;;;;;;5061206;28;20201;-78
2022/12/08 07:59:07;;;;;;;4.72;0.70;;;20.10;99.90;;;;;;5064629;28;20196;-78
2022/12/08 08:01:38;;;;;;;1.98;0.70;;;19.90;99.90;;;;;;5064522;28;20193;-80
2022/12/08 08:04:09;;;;;;;2.22;0.50;;;19.80;99.90;;;;;;5059802;28;20326;-81
2022/12/08 08:06:40;;;;;;;5.13;0.55;;;19.80;99.90;;;;;;5064556;28;20197;-80
2022/12/08 08:09:11;;;;;;;2.03;0.75;;;19.80;99.90;;;;;;5064145;28;20215;-77
2022/12/08 08:11:43;;;;;;;5.32;0.88;;;19.80;99.90;;;;;;5065120;28;20203;-78
2022/12/08 08:14:14;;;;;;;3.25;0.85;;;19.70;99.90;;;;;;5067393;28;20202;-73
2022/12/08 08:16:47;;;;;;;3.00;0.57;;;19.40;99.90;;;;;;5066732;28;20234;-78
2022/12/08 08:19:17;;;;;;;4.15;1.00;;;19.30;99.90;;;;;;5067793;28;20196;-77
2022/12/08 08:21:49;;;;;;;2.67;0.70;;;19.10;99.90;;;;;;5061600;28;20189;-78
2022/12/08 08:24:20;;;;;;;4.50;0.65;;;19.10;99.90;;;;;;5065443;28;20213;-76
2022/12/08 08:26:54;;;;;;;4.28;0.75;;;19.00;99.90;;;;;;5062346;28;20544;-76
2022/12/08 08:29:25;;;;;;;3.22;0.73;;;18.90;99.90;;;;;;5065444;28;20193;-78
2022/12/08 08:31:55;;;;;;;1.52;0.68;;;18.90;99.90;;;;;;5063972;28;20201;-76
2022/12/08 08:34:26;;;;;;;4.82;0.90;;;18.90;99.90;;;;;;5066467;28;20686;-78
2022/12/08 08:36:57;;;;;;;5.70;1.10;;;18.80;99.90;;;;;;5066244;28;20244;-77
2022/12/08 08:39:29;;;;;;;5.28;0.70;;;18.80;99.90;;;;;;5067131;28;20207;-78
2022/12/08 08:42:01;;;;;;;4.32;0.68;;;18.70;99.90;;;;;;5064899;28;20292;-77
2022/12/08 08:44:33;;;;;;;3.67;0.60;;;18.70;99.90;;;;;;5065997;28;20702;-78
2022/12/08 08:47:03;;;;;;;3.53;0.98;;;18.60;99.90;;;;;;5067345;28;20197;-79
2022/12/08 08:49:34;;;;;;;2.92;1.00;;;18.60;99.90;;;;;;5064542;28;20201;-77
2022/12/08 08:52:06;;;;;;;2.13;0.80;;;18.60;99.90;;;;;;5068127;28;20200;-78
2022/12/08 08:54:37;;;;;;;2.90;0.82;;;18.60;99.90;;;;;;5068540;28;20193;-77
2022/12/08 08:57:10;;;;;;;2.97;0.63;;;18.60;99.90;;;;;;5063552;28;20701;-79
2022/12/08 08:59:41;;;;;;;4.35;0.75;;;18.50;99.90;;;;;;5070226;28;20203;-79
2022/12/08 09:02:17;;;;;;;6.28;1.17;;;18.50;99.90;;;;;;5069746;28;20693;-78
2022/12/08 09:04:48;;;;;;;5.65;0.90;;;18.50;99.90;;;;;;5065161;28;20672;-77
2022/12/08 09:07:19;;;;;;;4.03;0.93;;;18.40;99.90;;;;;;5062666;28;20185;-79
2022/12/08 09:09:50;;;;;;;5.00;0.93;;;18.40;99.90;;;;;;5066382;28;20558;-77
2022/12/08 09:12:22;;;;;;;7.70;3.05;;;18.40;99.90;;;;;;5062715;28;20190;-78
2022/12/08 09:14:53;;;;;;;4.88;1.13;;;18.30;99.90;;;;;;5067501;28;20553;-78
2022/12/08 09:17:24;;;;;;;3.80;0.77;;;18.40;99.90;;;;;;5065511;28;20193;-80
2022/12/08 09:19:55;;;;;;;4.78;1.08;;;18.30;99.90;;;;;;5064979;28;20197;-78
2022/12/08 09:22:25;;;;;;;5.10;1.08;;;18.30;99.90;;;;;;5064578;28;20197;-78
2022/12/08 09:24:56;;;;;;;4.53;1.08;;;18.20;99.90;;;;;;5061078;28;20284;-78
2022/12/08 09:27:29;;;;;;;5.63;1.05;;;18.30;99.90;;;;;;5065152;28;20194;-79
2022/12/08 09:30:00;;;;;;;7.25;1.10;;;18.20;99.90;;;;;;5062848;28;20185;-78
2022/12/08 09:32:30;;;;;;;3.83;1.00;;;18.20;99.90;;;;;;5063193;28;20203;-75
2022/12/08 09:35:01;;;;;;;3.92;0.90;;;18.20;99.90;;;;;;5068423;28;20569;-78
2022/12/08 09:37:32;;;;;;;6.70;1.25;;;18.20;99.90;;;;;;5068271;28;20237;-78
2022/12/08 09:40:04;;;;;;;4.30;0.98;;;18.10;99.90;;;;;;5062807;28;20181;-78
2022/12/08 09:42:45;;;;;;;4.28;0.85;;;18.10;99.90;;;;;;5063817;28;20224;-80
2022/12/08 09:45:18;;;;;;;5.05;1.00;;;18.10;99.90;;;;;;5063758;28;20196;-79
2022/12/08 09:47:57;;;;;;;3.55;0.85;;;18.10;99.90;;;;;;5064949;28;20228;-79
2022/12/08 09:50:33;;;;;;;5.22;1.20;;;18.10;99.90;;;;;;5063433;28;20736;-79
2022/12/08 09:53:10;;;;;;;6.00;1.10;;;18.10;99.90;;;;;;5064500;28;20197;-78
2022/12/08 09:55:46;;;;;;;3.58;1.00;;;18.10;99.90;;;;;;5066197;28;20614;-80
2022/12/08 09:58:25;;;;;;;4.82;1.30;;;18.10;99.90;;;;;;5070069;28;20565;-78
2022/12/08 10:00:56;;;;;;;4.68;0.93;;;18.20;99.90;;;;;;5073559;28;20276;-78
2022/12/08 10:03:29;;;;;;;2.28;0.93;;;18.20;99.90;;;;;;5072680;28;20221;-77
2022/12/08 10:06:05;;;;;;;3.75;1.10;;;18.20;99.90;;;;;;5070710;28;20728;-79
2022/12/08 10:08:44;;;;;;;6.18;1.20;;;18.20;99.90;;;;;;5073042;28;20200;-79
2022/12/08 10:11:20;;;;;;;5.35;0.98;;;18.30;99.90;;;;;;5072051;28;20200;-78
2022/12/08 10:14:00;;;;;;;3.92;0.82;;;18.30;99.90;;;;;;5073124;28;20215;-79
2022/12/08 10:16:37;;;;;;;4.15;0.90;;;18.30;99.90;;;;;;5071219;28;20189;-77
2022/12/08 10:19:16;;;;;;;6.15;0.80;;;18.40;99.90;;;;;;5071432;28;20202;-78
2022/12/08 10:21:47;;;;;;;4.95;0.63;;;18.30;99.90;;;;;;5072254;28;20205;-79
2022/12/08 10:24:25;;;;;;;5.20;0.80;;;18.30;99.90;;;;;;5068846;28;20213;-80
2022/12/08 10:26:57;;;;;;;9.00;1.20;;;18.30;99.90;;;;;;5067705;28;20287;-79
2022/12/08 10:29:31;;;;;;;3.95;0.80;;;18.30;99.90;;;;;;5065192;28;20651;-79
2022/12/08 10:32:03;;;;;;;5.63;1.08;;;18.40;99.90;;;;;;5069670;28;20283;-80
2022/12/08 10:34:33;;;;;;;5.22;1.20;;;18.40;99.90;;;;;;5071493;28;20197;-78
2022/12/08 10:37:17;;;;;;;5.07;0.80;;;18.30;99.90;;;;;;5068065;28;20316;-79
2022/12/08 10:39:48;;;;;;;5.43;0.90;;;18.30;99.90;;;;;;5052655;28;20205;-79
2022/12/08 10:42:23;;;;;;;5.30;1.15;;;18.30;99.90;;;;;;5064232;28;20200;-80
2022/12/08 10:45:04;;;;;;;3.40;0.60;;;18.40;99.90;;;;;;5072722;28;20223;-80
2022/12/08 10:47:39;;;;;;;4.90;0.80;;;18.30;99.90;;;;;;5073034;28;20195;-77
2022/12/08 10:50:21;;;;;;;3.38;0.73;;;18.30;99.90;;;;;;5071374;28;20536;-79
2022/12/08 10:52:59;;;;;;;4.43;0.90;;;18.30;99.90;;;;;;5072986;28;20204;-79
2022/12/08 10:55:30;;;;;;;4.88;1.05;;;18.30;99.90;;;;;;5076507;28;20273;-79
2022/12/08 10:58:01;;;;;;;3.83;0.90;;;18.30;99.90;;;;;;5074653;28;20198;-79
2022/12/08 11:00:33;;;;;;;3.60;0.70;;;18.20;99.90;;;;;;5075480;28;20196;-79
2022/12/08 11:03:05;;;;;;;7.50;1.10;;;18.20;99.90;;;;;;5075713;28;20189;-78
2022/12/08 11:05:37;;;;;;;6.97;1.23;;;18.20;99.90;;;;;;5075768;28;20202;-79
2022/12/08 11:08:10;;;;;;;3.50;0.85;;;18.20;99.90;;;;;;5076010;28;20203;-79
2022/12/08 11:10:46;;;;;;;7.55;0.90;;;18.20;99.90;;;;;;5074490;28;20196;-79
2022/12/08 11:13:21;;;;;;;11.23;1.00;;;18.10;99.90;;;;;;5076247;28;20192;-79
2022/12/08 11:15:55;;;;;;;6.68;1.10;;;18.10;99.90;;;;;;5076115;28;20564;-79
2022/12/08 11:18:30;;;;;;;5.45;1.20;;;18.10;99.90;;;;;;5071623;28;20192;-79
2022/12/08 11:21:07;;;;;;;3.20;0.75;;;18.10;99.90;;;;;;5076106;28;20203;-80
2022/12/08 11:23:39;;;;;;;4.65;0.93;;;18.10;99.90;;;;;;5074363;28;20230;-80
2022/12/08 11:26:19;;;;;;;6.22;0.75;;;18.00;99.90;;;;;;5073379;28;20197;-80
2022/12/08 11:28:50;;;;;;;6.25;0.80;;;18.00;99.90;;;;;;5068419;28;20666;-80
2022/12/08 11:31:29;;;;;;;3.83;0.80;;;18.00;99.90;;;;;;5069662;28;20199;-79
2022/12/08 11:34:00;;;;;;;5.65;0.90;;;18.00;99.90;;;;;;5066958;28;20205;-79
2022/12/08 11:36:35;;;;;;;4.28;0.80;;;18.00;99.90;;;;;;5062492;28;20247;-79
2022/12/08 11:39:07;;;;;;;3.60;0.90;;;18.00;99.90;;;;;;5064537;28;20217;-78
2022/12/08 11:41:43;;;;;;;6.20;1.00;;;17.90;99.90;;;;;;5071169;28;20193;-79
2022/12/08 11:44:23;;;;;;;5.35;1.13;;;17.90;99.90;;;;;;5064614;28;20213;-80
2022/12/08 11:46:59;;;;;;;3.67;0.77;;;18.00;99.90;;;;;;5055349;28;20190;-80
2022/12/08 11:49:36;;;;;;;3.10;0.75;;;17.90;99.90;;;;;;5070362;28;20212;-80
2022/12/08 11:52:14;;;;;;;3.65;0.98;;;18.00;99.90;;;;;;5075486;28;20184;-80
2022/12/08 11:54:50;;;;;;;4.07;0.85;;;17.90;99.90;;;;;;5075810;28;20197;-79
2022/12/08 11:57:25;;;;;;;7.20;0.93;;;17.90;99.90;;;;;;5075001;28;20693;-79
2022/12/08 11:59:58;;;;;;;4.95;0.80;;;17.90;99.90;;;;;;5071908;28;20190;-80
2022/12/08 12:02:41;;;;;;;4.18;0.73;;;18.00;99.90;;;;;;5064402;28;20220;-80
2022/12/08 12:05:24;;;;;;;5.53;1.10;;;18.00;99.90;;;;;;5074364;28;20908;-80
2022/12/08 12:08:12;;;;;;;3.03;0.93;;;17.90;99.90;;;;;;5055148;28;20204;-80
2022/12/08 12:10:55;;;;;;;3.22;0.82;;;17.80;99.90;;;;;;5055133;28;20223;-80
2022/12/08 12:13:42;;;;;;;5.82;0.88;;;17.90;99.90;;;;;;5055077;28;20193;-80
2022/12/08 12:16:52;;;;;;;2.92;0.77;;;17.80;99.90;;;;;;5054970;28;20580;-80
2022/12/08 12:19:26;;;;;;;4.45;0.80;;;17.80;99.90;;;;;;4993406;28;20215;-80
2022/12/08 12:21:58;;;;;;;3.83;0.98;;;17.70;99.90;;;;;;4993408;28;20191;-80
2022/12/08 12:24:33;;;;;;;4.65;0.90;;;17.70;99.90;;;;;;5041588;28;20224;-80
2022/12/08 12:27:16;;;;;;;5.38;1.00;;;17.70;99.90;;;;;;5074700;28;20193;-80
2022/12/08 12:29:51;;;;;;;5.07;1.05;;;17.70;99.90;;;;;;5075064;28;20193;-80
2022/12/08 12:32:22;;;;;;;5.72;0.95;;;17.70;99.90;;;;;;5074782;28;20181;-79
2022/12/08 12:34:57;;;;;;;4.65;0.90;;;17.70;99.90;;;;;;5074168;28;20199;-79
2022/12/08 12:37:37;;;;;;;5.53;0.90;;;17.70;99.90;;;;;;5065336;28;20229;-80
2022/12/08 12:40:17;;;;;;;4.75;0.93;;;17.70;99.90;;;;;;5065804;28;20200;-80
2022/12/08 12:42:50;;;;;;;1.98;0.80;;;17.70;99.90;;;;;;5074430;28;20195;-80
2022/12/08 12:45:31;;;;;;;4.68;0.88;;;17.70;99.90;;;;;;5073728;28;20218;-80
2022/12/08 12:48:24;;;;;;;6.22;0.90;;;17.70;99.90;;;;;;5071150;28;20197;-80
2022/12/08 12:50:56;;;;;;;4.90;1.13;;;17.70;99.90;;;;;;5069888;28;20196;-81
2022/12/08 12:53:49;;;;;;;6.03;1.00;;;17.80;99.90;;;;;;5074529;28;20280;-80
2022/12/08 12:56:54;;;;;;;4.70;1.05;;;17.90;99.90;;;;;;5074158;28;20209;-80
2022/12/08 12:59:43;;;;;;;8.00;1.38;;;17.90;99.90;;;;;;5074135;28;20193;-80
2022/12/08 13:02:27;;;;;;;4.38;0.90;;;17.90;99.90;;;;;;5074064;28;20189;-81
2022/12/08 13:05:03;;;;;;;4.60;0.90;;;17.90;99.90;;;;;;5068189;28;20205;-80
2022/12/08 13:07:42;;;;;;;7.63;1.15;;;17.90;99.90;;;;;;5072407;28;20196;-80
2022/12/08 13:10:22;;;;;;;5.45;1.10;;;17.90;99.90;;;;;;5073668;28;20191;-80
2022/12/08 13:13:07;;;;;;;4.90;1.00;;;17.90;99.90;;;;;;5073798;28;20199;-80
2022/12/08 13:15:40;;;;;;;3.83;1.20;;;17.90;99.90;;;;;;5073293;28;20557;-80
2022/12/08 13:18:21;;;;;;;5.47;0.90;;;17.80;99.90;;;;;;5073718;28;20193;-81
2022/12/08 13:20:54;;;;;;;6.45;0.95;;;17.70;99.90;;;;;;5072297;28;20199;-81
2022/12/08 13:23:46;;;;;;;4.43;0.90;;;17.70;99.90;;;;;;5066378;28;20211;-81
2022/12/08 13:26:22;;;;;;;5.38;1.00;;;17.60;99.90;;;;;;5053849;28;20194;-80